Map

Track Data

SID SEASON NUMBER BASIN SUBBASIN NAME ISO_TIME NATURE LAT LON WMO_WIND WMO_PRES WMO_AGENCY TRACK_TYPE DIST2LAND LANDFALL IFLAG USA_AGENCY USA_ATCF_ID USA_LAT USA_LON USA_RECORD USA_STATUS USA_WIND USA_PRES USA_SSHS USA_R34_NE USA_R34_SE USA_R34_SW USA_R34_NW USA_R50_NE USA_R50_SE USA_R50_SW USA_R50_NW USA_R64_NE USA_R64_SE USA_R64_SW USA_R64_NW USA_POCI USA_ROCI USA_RMW USA_EYE TOKYO_LAT TOKYO_LON TOKYO_GRADE TOKYO_WIND TOKYO_PRES TOKYO_R50_DIR TOKYO_R50_LONG TOKYO_R50_SHORT TOKYO_R30_DIR TOKYO_R30_LONG TOKYO_R30_SHORT TOKYO_LAND CMA_LAT CMA_LON CMA_CAT CMA_WIND CMA_PRES HKO_LAT HKO_LON HKO_CAT HKO_WIND HKO_PRES NEWDELHI_LAT NEWDELHI_LON NEWDELHI_GRADE NEWDELHI_WIND NEWDELHI_PRES NEWDELHI_CI NEWDELHI_DP NEWDELHI_POCI REUNION_LAT REUNION_LON REUNION_TYPE REUNION_WIND REUNION_PRES REUNION_TNUM REUNION_CI REUNION_RMW REUNION_R34_NE REUNION_R34_SE REUNION_R34_SW REUNION_R34_NW REUNION_R50_NE REUNION_R50_SE REUNION_R50_SW REUNION_R50_NW REUNION_R64_NE REUNION_R64_SE REUNION_R64_SW REUNION_R64_NW BOM_LAT BOM_LON BOM_TYPE BOM_WIND BOM_PRES BOM_TNUM BOM_CI BOM_RMW BOM_R34_NE BOM_R34_SE BOM_R34_SW BOM_R34_NW BOM_R50_NE BOM_R50_SE BOM_R50_SW BOM_R50_NW BOM_R64_NE BOM_R64_SE BOM_R64_SW BOM_R64_NW BOM_ROCI BOM_POCI BOM_EYE BOM_POS_METHOD BOM_PRES_METHOD NADI_LAT NADI_LON NADI_CAT NADI_WIND NADI_PRES WELLINGTON_LAT WELLINGTON_LON WELLINGTON_WIND WELLINGTON_PRES DS824_LAT DS824_LON DS824_STAGE DS824_WIND DS824_PRES TD9636_LAT TD9636_LON TD9636_STAGE TD9636_WIND TD9636_PRES TD9635_LAT TD9635_LON TD9635_WIND TD9635_PRES TD9635_ROCI NEUMANN_LAT NEUMANN_LON NEUMANN_CLASS NEUMANN_WIND NEUMANN_PRES MLC_LAT MLC_LON MLC_CLASS MLC_WIND MLC_PRES USA_GUST BOM_GUST BOM_GUST_PER REUNION_GUST REUNION_GUST_PER USA_SEAHGT USA_SEARAD_NE USA_SEARAD_SE USA_SEARAD_SW USA_SEARAD_NW STORM_SPEED STORM_DIR
1990075S09176 1990 21 SP MM RAE 1990-03-16 00:00:00 NR -8.50000 175.500 30 997 wellington spur-merge 973 943 ________O_____ -1 -8.50000 175.500 30 997 6 137
1990075S09176 1990 21 SP MM RAE 1990-03-16 03:00:00 NR -8.71102 175.703 spur-merge 943 915 ________P_____ -1 -8.71102 175.703 30 997 6 136
1990075S09176 1990 21 SP MM RAE 1990-03-16 06:00:00 NR -8.91758 175.905 spur-merge 915 886 ________P_____ -1 -8.91758 175.905 30 997 6 136
1990075S09176 1990 21 SP MM RAE 1990-03-16 09:00:00 NR -9.11536 176.104 spur-merge 886 857 ________P_____ -1 -9.11536 176.104 30 997 5 135
1990075S09176 1990 21 SP MM RAE 1990-03-16 12:00:00 NR -9.30000 176.300 30 997 wellington spur-merge 857 827 ________O_____ -1 -9.30000 176.300 30 997 5 133
1990075S09176 1990 21 SP MM RAE 1990-03-16 15:00:00 NR -9.46998 176.490 spur-merge 827 809 ________P_____ -1 -9.46998 176.490 30 997 5 132
1990075S09176 1990 21 SP MM RAE 1990-03-16 18:00:00 NR -9.63498 176.673 spur-merge 809 784 ________P_____ -1 -9.63498 176.673 30 997 5 134
1990075S09176 1990 21 SP MM RAE 1990-03-16 21:00:00 NR -9.80749 176.844 spur-merge 784 755 ________P_____ -1 -9.80749 176.844 30 997 5 139
1990075S09176 1990 21 SP MM RAE 1990-03-17 00:00:00 NR -10.0000 177.000 30 997 wellington spur-merge 755 730 ________O_____ -1 -10.0000 177.000 30 997 5 145
1990075S09176 1990 21 SP MM RAE 1990-03-17 03:00:00 NR -10.2284 177.143 spur-merge 730 691 ________P_____ -1 -10.2284 177.143 30 997 6 151
1990075S09176 1990 21 SP MM RAE 1990-03-17 06:00:00 NR -10.4775 177.273 spur-merge 691 666 ________P_____ -1 -10.4775 177.273 30 997 6 154
1990075S09176 1990 21 SP MM RAE 1990-03-17 09:00:00 NR -10.7378 177.390 spur-merge 666 631 ________P_____ -1 -10.7378 177.390 30 997 6 157
1990075S09176 1990 21 SP MM RAE 1990-03-17 12:00:00 NR -11.0000 177.500 30 997 wellington spur-merge 631 606 ________O_____ -1 -11.0000 177.500 30 997 5 155
1990075S09176 1990 21 SP MM RAE 1990-03-17 15:00:00 NR -11.2175 177.619 spur-merge 606 582 ________P_____ -1 -11.2175 177.619 30 997 5 153
1990075S09176 1990 21 SP MM RAE 1990-03-17 18:00:00 NR -11.4400 177.730 spur-merge 582 546 ________P_____ -1 -11.4400 177.730 30 997 5 157
1990075S09176 1990 21 SP MM RAE 1990-03-17 21:00:00 NR -11.6925 177.826 spur-merge 546 511 ________P_____ -1 -11.6925 177.826 30 997 6 163
1990075S09176 1990 21 SP MM RAE 1990-03-18 00:00:00 NR -12.0000 177.900 30 997 wellington spur-merge 511 465 ________O_____ -1 -12.0000 177.900 30 997 7 170
1990075S09176 1990 21 SP MM RAE 1990-03-18 03:00:00 NR -12.4006 177.959 spur-merge 465 423 ________P_____ -1 -12.4006 177.959 30 997 9 174
1990075S09176 1990 21 SP MM RAE 1990-03-18 06:00:00 NR -12.8550 177.995 spur-merge 413 372 ________P_____ -1 -12.8550 177.995 30 997 9 177
1990075S09176 1990 21 SP MM RAE 1990-03-18 09:00:00 NR -13.3319 178.009 spur-merge 372 320 ________P_____ -1 -13.3319 178.009 30 997 10 0
1990075S09176 1990 21 SP MM RAE 1990-03-18 12:00:00 NR -13.8000 178.000 30 997 wellington spur-merge 320 278 ________O_____ -1 -13.8000 178.000 30 997 9 183
1990075S09176 1990 21 SP MM RAE 1990-03-18 15:00:00 NR -14.2468 177.980 spur-merge 278 232 ________P_____ -1 -14.2468 177.980 30 997 9 184
1990075S09176 1990 21 SP MM RAE 1990-03-18 18:00:00 NR -14.6749 177.938 spur-merge 232 200 ________P_____ -1 -14.6749 177.938 30 997 8 187
1990075S09176 1990 21 SP MM RAE 1990-03-18 21:00:00 NR -15.0656 177.877 spur-merge 190 163 ________P_____ -1 -15.0656 177.877 30 997 7 190
1990075S09176 1990 21 SP MM RAE 1990-03-19 00:00:00 NR -15.4000 177.800 30 997 wellington spur-merge 163 140 ________O_____ -1 -15.4000 177.800 30 997 6 193
1990075S09176 1990 21 SP MM RAE 1990-03-19 03:00:00 NR -15.6655 177.735 spur-merge 140 123 ________P_____ -1 -15.6655 177.735 30 997 5 197
1990075S09176 1990 21 SP MM RAE 1990-03-19 06:00:00 NR -15.8748 177.652 spur-merge 123 123 ________P_____ -1 -15.8748 177.652 30 997 4 206
1990075S09176 1990 21 SP MM RAE 1990-03-19 09:00:00 NR -16.0467 177.544 spur-merge 132 126 ________P_____ -1 -16.0467 177.544 30 997 4 217
1990075S09176 1990 21 SP MM RAE 1990-03-19 12:00:00 NR -16.2000 177.400 30 997 wellington spur-merge 130 127 ________O_____ -1 -16.2000 177.400 30 997 5 225
1990075S09176 1990 21 SP MM RAE 1990-03-19 15:00:00 NR -16.3685 177.215 spur-merge 127 119 ________P_____ -1 -16.3685 177.215 30 997 5 230
1990075S09176 1990 21 SP MM RAE 1990-03-19 18:00:00 NR -16.5225 176.995 spur-merge 123 116 ________P_____ -1 -16.5225 176.995 30 997 5 236
1990075S09176 1990 21 SP MM RAE 1990-03-19 21:00:00 NR -16.6653 176.752 spur-merge 116 116 ________P_____ -1 -16.6653 176.752 30 997 6 240
1990075S09176 1990 21 SP MM RAE 1990-03-20 00:00:00 NR -16.8000 176.500 30 997 wellington spur-merge 130 130 ________O_____ -1 -16.8000 176.500 30 997 5 239
1990075S09176 1990 21 SP MM RAE 1990-03-20 03:00:00 NR -16.9360 176.281 spur-merge 140 134 ________P_____ -1 -16.9360 176.281 30 997 5 238
1990075S09176 1990 21 SP MM RAE 1990-03-20 06:00:00 NR -17.0645 176.052 spur-merge 148 148 ________P_____ -1 -17.0645 176.052 30 997 5 242
1990075S09176 1990 21 SP MM RAE 1990-03-20 09:00:00 NR -17.1859 175.797 spur-merge 173 173 ________P_____ -1 -17.1859 175.797 30 997 6 246
1990075S09176 1990 21 SP MM RAE 1990-03-20 12:00:00 NR -17.3000 175.500 30 997 wellington spur-merge 196 196 ________O_____ -1 -17.3000 175.500 30 997 7 252
1990075S09176 1990 21 SP MM RAE 1990-03-20 15:00:00 NR -17.3914 175.115 spur-merge 232 232 ________P_____ -1 -17.4072 175.151 30 997 8 257
1990075S09176 1990 21 SP MM RAE 1990-03-20 18:00:00 NR -17.4782 174.692 spur-merge 270 270 ________P_____ -1 -17.5085 174.758 30 997 8 257
1990075S09176 1990 21 SP MM RAE 1990-03-20 21:00:00 NR -17.5758 174.274 spur-merge 310 310 ________P_____ -1 -17.6056 174.336 30 997 8 254
1990075S09176 1990 21 SP MM RAE 1990-03-21 00:00:00 NR -17.7000 173.900 30 997 wellington spur-merge 350 ________O_____ -1 -17.7000 173.900 30 997 8 251

Digital Typhoon Data and Search

About IBTrACS Database

This database is a web-friendly format of International Best Track Archive for Climate Stewardship (IBTrACS), a global best track data archive curated by NOAA dating back to 1842.

Updated: 2021-10-25